Time;durP1;ratioP1;P1;durP2;ratioP2;P2;SDS_P1;SDS_P2;PMS_P1;PMS_P2;Temp;Humidity;BMP_temperature;BMP_pressure;BME280_temperature;BME280_humidity;BME280_pressure;Samples;Min_cycle;Max_cycle;Signal;HPM_P1;HPM_P2
2023/09/26 00:02:05;;;;;;;;;;;;;;;8.92;50.40;96194.88;4981528;28;19997;-76
2023/09/26 00:04:31;;;;;;;;;;;;;;;8.84;49.72;96194.78;4985852;28;20316;-74
2023/09/26 00:06:59;;;;;;;;;;;;;;;8.76;50.50;96198.19;4982922;28;20715;-75
2023/09/26 00:09:26;;;;;;;;;;;;;;;8.68;50.13;96201.63;4979718;28;20057;-76
2023/09/26 00:11:52;;;;;;;;;;;;;;;8.66;50.69;96193.81;4981374;28;20803;-74
2023/09/26 00:14:17;;;;;;;;;;;;;;;8.65;50.59;96196.63;4964745;28;20050;-75
2023/09/26 00:16:42;;;;;;;;;;;;;;;8.65;50.37;96201.94;4978608;28;20035;-75
2023/09/26 00:19:07;;;;;;;;;;;;;;;8.65;50.63;96193.97;4979882;28;19968;-74
2023/09/26 00:21:32;;;;;;;;;;;;;;;8.71;51.09;96196.03;4981196;28;19993;-75
2023/09/26 00:23:58;;;;;;;;;;;;;;;8.73;50.80;96194.03;4991870;28;20366;-74
2023/09/26 00:26:23;;;;;;;;;;;;;;;8.76;50.98;96191.06;4990497;28;19988;-75
2023/09/26 00:28:48;;;;;;;;;;;;;;;8.78;50.56;96188.28;4977682;28;19979;-74
2023/09/26 00:31:13;;;;;;;;;;;;;;;8.84;50.59;96197.44;4983136;28;20562;-75
2023/09/26 00:33:39;;;;;;;;;;;;;;;8.84;50.78;96186.84;4960571;28;20503;-72
2023/09/26 00:36:07;;;;;;;;;;;;;;;8.87;50.65;96187.34;4965968;28;20010;-74
2023/09/26 00:38:33;;;;;;;;;;;;;;;8.87;50.73;96189.19;4968171;28;20033;-73
2023/09/26 00:40:58;;;;;;;;;;;;;;;8.85;50.37;96176.06;4974431;28;20463;-72
2023/09/26 00:43:23;;;;;;;;;;;;;;;8.86;50.60;96182.19;4974713;28;19976;-74
2023/09/26 00:45:51;;;;;;;;;;;;;;;8.82;49.65;96177.22;4967806;28;20009;-73
2023/09/26 00:48:16;;;;;;;;;;;;;;;8.73;50.32;96186.06;4957521;28;19976;-73
2023/09/26 00:50:43;;;;;;;;;;;;;;;8.75;50.52;96181.47;4963720;28;19990;-73
2023/09/26 00:53:08;;;;;;;;;;;;;;;8.77;50.87;96176.00;4942947;28;20334;-74
2023/09/26 00:55:33;;;;;;;;;;;;;;;8.78;50.70;96175.00;4957323;28;20045;-73
2023/09/26 00:57:58;;;;;;;;;;;;;;;8.77;50.63;96179.47;4940571;28;19987;-75
2023/09/26 01:00:24;;;;;;;;;;;;;;;8.78;50.71;96182.97;4954499;28;19969;-72
2023/09/26 01:02:49;;;;;;;;;;;;;;;8.78;50.58;96178.47;4966305;28;19994;-74
2023/09/26 01:05:15;;;;;;;;;;;;;;;8.79;50.44;96180.16;4965508;28;20011;-71
2023/09/26 01:07:40;;;;;;;;;;;;;;;8.85;50.72;96181.38;4972061;28;20021;-74
2023/09/26 01:10:07;;;;;;;;;;;;;;;8.88;50.69;96182.88;4962147;28;20437;-73
2023/09/26 01:12:32;;;;;;;;;;;;;;;8.92;50.01;96181.59;4969662;28;20066;-73
2023/09/26 01:14:57;;;;;;;;;;;;;;;8.85;50.13;96173.41;4963027;28;20887;-72
2023/09/26 01:17:22;;;;;;;;;;;;;;;8.84;50.65;96173.56;4940189;28;19992;-73
2023/09/26 01:19:48;;;;;;;;;;;;;;;8.80;49.75;96167.69;4939616;28;20017;-75
2023/09/26 01:22:13;;;;;;;;;;;;;;;8.78;50.61;96169.69;4957737;28;19990;-73
2023/09/26 01:24:39;;;;;;;;;;;;;;;8.76;50.15;96161.03;4956256;28;20017;-73
2023/09/26 01:27:04;;;;;;;;;;;;;;;8.72;50.58;96165.81;4929459;28;20352;-73
2023/09/26 01:29:29;;;;;;;;;;;;;;;8.70;50.86;96154.50;4957702;28;19994;-73
2023/09/26 01:31:55;;;;;;;;;;;;;;;8.72;50.52;96159.66;4957201;28;19966;-72
2023/09/26 01:34:20;;;;;;;;;;;;;;;8.73;50.73;96156.88;4957150;28;19979;-74
2023/09/26 01:36:45;;;;;;;;;;;;;;;8.73;50.53;96154.22;4928023;28;20023;-72
2023/09/26 01:39:10;;;;;;;;;;;;;;;8.72;50.53;96152.56;4956237;28;20296;-73
2023/09/26 01:41:36;;;;;;;;;;;;;;;8.72;50.87;96149.91;4952220;28;20710;-73
2023/09/26 01:44:01;;;;;;;;;;;;;;;8.66;50.74;96140.72;4970806;28;20589;-74
2023/09/26 01:46:26;;;;;;;;;;;;;;;8.66;50.75;96146.03;4977332;28;19967;-74
2023/09/26 01:48:51;;;;;;;;;;;;;;;8.74;51.00;96147.09;4990834;28;19998;-74
2023/09/26 01:51:17;;;;;;;;;;;;;;;8.77;50.82;96142.28;4979519;28;19963;-74
2023/09/26 01:53:42;;;;;;;;;;;;;;;8.79;50.53;96139.50;4982117;28;20013;-74
2023/09/26 01:56:07;;;;;;;;;;;;;;;8.79;50.41;96144.81;4981190;28;19966;-74
2023/09/26 01:58:32;;;;;;;;;;;;;;;8.77;50.36;96142.28;4964413;28;20836;-74
2023/09/26 02:00:58;;;;;;;;;;;;;;;8.78;50.23;96136.00;4960224;28;20016;-75
2023/09/26 02:03:23;;;;;;;;;;;;;;;8.77;50.23;96134.34;4963593;28;19996;-74
2023/09/26 02:05:48;;;;;;;;;;;;;;;8.74;50.34;96131.97;4968708;28;19980;-74
2023/09/26 02:08:16;;;;;;;;;;;;;;;8.71;50.02;96132.31;4966767;28;19973;-74
2023/09/26 02:10:41;;;;;;;;;;;;;;;8.67;50.73;96134.41;4971540;28;19954;-74
2023/09/26 02:13:06;;;;;;;;;;;;;;;8.67;50.20;96136.25;4973565;28;20364;-74
2023/09/26 02:15:31;;;;;;;;;;;;;;;8.59;50.85;96134.34;4980573;28;19965;-74
2023/09/26 02:17:57;;;;;;;;;;;;;;;8.56;51.02;96129.34;4988005;28;20016;-75
2023/09/26 02:20:22;;;;;;;;;;;;;;;8.50;51.11;96129.97;4980008;28;19991;-75
2023/09/26 02:22:48;;;;;;;;;;;;;;;8.54;51.03;96128.69;4982980;28;19969;-74
2023/09/26 02:25:13;;;;;;;;;;;;;;;8.55;51.37;96135.66;4986514;28;20043;-74
2023/09/26 02:27:39;;;;;;;;;;;;;;;8.63;50.77;96134.88;4986191;28;19969;-74
2023/09/26 02:30:05;;;;;;;;;;;;;;;8.66;50.71;96138.06;4983839;28;19985;-74
2023/09/26 02:32:33;;;;;;;;;;;;;;;8.69;50.58;96134.28;4975235;28;20064;-74
2023/09/26 02:34:59;;;;;;;;;;;;;;;8.69;50.71;96139.56;4981285;28;19996;-74
2023/09/26 02:37:24;;;;;;;;;;;;;;;8.72;50.41;96133.97;4981685;28;20729;-75
2023/09/26 02:39:49;;;;;;;;;;;;;;;8.69;50.73;96134.28;4994047;28;20100;-74
2023/09/26 02:42:15;;;;;;;;;;;;;;;8.66;50.59;96129.25;4984773;28;19984;-74
2023/09/26 02:44:40;;;;;;;;;;;;;;;8.65;50.42;96122.28;4997025;28;20024;-74
2023/09/26 02:47:05;;;;;;;;;;;;;;;8.62;50.67;96130.56;4984980;28;19962;-74
2023/09/26 02:49:30;;;;;;;;;;;;;;;8.63;50.85;96129.56;4992375;28;19990;-74
2023/09/26 02:51:56;;;;;;;;;;;;;;;8.65;50.91;96132.91;4992497;28;19965;-75
2023/09/26 02:54:21;;;;;;;;;;;;;;;8.68;50.55;96128.13;4979669;28;19983;-74
2023/09/26 02:56:46;;;;;;;;;;;;;;;8.73;50.60;96125.00;4987684;28;20207;-74
2023/09/26 02:59:11;;;;;;;;;;;;;;;8.73;50.58;96122.34;4986472;28;19973;-75
2023/09/26 03:01:37;;;;;;;;;;;;;;;8.73;50.45;96118.84;4982715;28;20111;-75
2023/09/26 03:04:02;;;;;;;;;;;;;;;8.71;50.57;96121.69;4956272;28;20471;-74
2023/09/26 03:06:27;;;;;;;;;;;;;;;8.68;50.48;96116.69;4982620;28;20056;-75
2023/09/26 03:08:52;;;;;;;;;;;;;;;8.61;50.96;96120.94;4987795;28;20119;-74
2023/09/26 03:11:17;;;;;;;;;;;;;;;8.58;50.89;96119.44;4984241;28;19967;-74
2023/09/26 03:13:43;;;;;;;;;;;;;;;8.54;50.72;96104.78;4983979;28;19985;-75
2023/09/26 03:16:12;;;;;;;;;;;;;;;8.52;50.72;96115.56;4984493;28;19972;-75
2023/09/26 03:18:37;;;;;;;;;;;;;;;8.51;50.92;96113.91;4956868;28;19973;-74
2023/09/26 03:21:05;;;;;;;;;;;;;;;8.53;50.87;96109.25;4984128;28;20043;-75
2023/09/26 03:23:31;;;;;;;;;;;;;;;8.53;51.13;96111.06;4995709;28;20075;-75
2023/09/26 03:25:56;;;;;;;;;;;;;;;8.54;51.16;96116.22;4986377;28;20022;-75
2023/09/26 03:28:21;;;;;;;;;;;;;;;8.50;50.81;96112.22;4983378;28;20055;-75
2023/09/26 03:30:47;;;;;;;;;;;;;;;8.47;51.14;96115.16;4989162;28;19960;-75
2023/09/26 03:33:12;;;;;;;;;;;;;;;8.51;51.33;96118.38;4993695;28;19985;-75
2023/09/26 03:35:37;;;;;;;;;;;;;;;8.52;51.31;96117.38;4993660;28;19963;-74
2023/09/26 03:38:03;;;;;;;;;;;;;;;8.54;50.78;96126.84;4985193;28;20021;-74
2023/09/26 03:40:28;;;;;;;;;;;;;;;8.56;50.82;96118.72;4993161;28;20001;-74
2023/09/26 03:42:54;;;;;;;;;;;;;;;8.55;50.66;96117.06;4971569;28;19964;-75
2023/09/26 03:45:19;;;;;;;;;;;;;;;8.56;51.14;96118.72;4986302;28;20049;-74
2023/09/26 03:47:45;;;;;;;;;;;;;;;8.52;50.70;96115.56;4987175;28;20023;-74
2023/09/26 03:50:10;;;;;;;;;;;;;;;8.48;50.41;96119.50;4981887;28;19983;-75
2023/09/26 03:52:35;;;;;;;;;;;;;;;8.40;51.41;96114.13;4980955;28;19988;-75
2023/09/26 03:55:02;;;;;;;;;;;;;;;8.35;50.90;96111.94;4970885;28;20622;-74
2023/09/26 03:57:29;;;;;;;;;;;;;;;8.28;51.18;96117.00;4970474;28;19994;-75
2023/09/26 03:59:54;;;;;;;;;;;;;;;8.23;51.43;96119.25;4968573;28;19989;-75
2023/09/26 04:02:20;;;;;;;;;;;;;;;8.21;51.98;96120.41;4968502;28;19996;-74
2023/09/26 04:04:45;;;;;;;;;;;;;;;8.23;52.12;96124.56;4963540;28;20157;-72
2023/09/26 04:07:10;;;;;;;;;;;;;;;8.28;51.61;96118.81;4967257;28;19973;-74
2023/09/26 04:09:35;;;;;;;;;;;;;;;8.31;51.81;96115.88;4944927;28;19989;-74
2023/09/26 04:12:01;;;;;;;;;;;;;;;8.36;51.48;96120.72;4968659;28;19969;-73
2023/09/26 04:14:27;;;;;;;;;;;;;;;8.43;51.81;96109.34;4951375;28;20096;-74
2023/09/26 04:16:52;;;;;;;;;;;;;;;8.49;51.16;96115.84;4967203;28;20003;-73
2023/09/26 04:19:17;;;;;;;;;;;;;;;8.50;50.93;96106.91;4971289;28;19976;-74
2023/09/26 04:21:43;;;;;;;;;;;;;;;8.49;50.97;96107.06;4977150;28;19995;-74
2023/09/26 04:24:08;;;;;;;;;;;;;;;8.42;50.71;96097.06;4974669;28;20139;-74
2023/09/26 04:26:33;;;;;;;;;;;;;;;8.35;51.27;96095.16;4976373;28;19984;-72
2023/09/26 04:28:58;;;;;;;;;;;;;;;8.27;51.06;96093.28;4972432;28;20109;-73
2023/09/26 04:31:23;;;;;;;;;;;;;;;8.17;50.82;96090.69;4964821;28;20060;-72
2023/09/26 04:33:49;;;;;;;;;;;;;;;8.12;51.05;96098.25;4964862;28;20522;-73
2023/09/26 04:36:14;;;;;;;;;;;;;;;8.08;51.90;96089.78;4973909;28;20404;-74
2023/09/26 04:38:39;;;;;;;;;;;;;;;8.08;51.66;96088.94;4927239;28;19962;-73
2023/09/26 04:41:05;;;;;;;;;;;;;;;8.05;51.41;96092.72;4953584;28;19985;-69
2023/09/26 04:43:30;;;;;;;;;;;;;;;8.02;52.08;96087.72;4955380;28;20107;-69
2023/09/26 04:45:55;;;;;;;;;;;;;;;8.04;52.11;96097.22;4950746;28;20031;-69
2023/09/26 04:48:21;;;;;;;;;;;;;;;8.04;51.61;96083.97;4950759;28;20029;-69
2023/09/26 04:50:46;;;;;;;;;;;;;;;8.08;52.16;96079.19;4948455;28;19973;-69
2023/09/26 04:53:11;;;;;;;;;;;;;;;8.09;51.63;96090.63;4954016;28;20350;-69
2023/09/26 04:55:36;;;;;;;;;;;;;;;8.08;52.10;96089.78;4954607;28;20101;-69
2023/09/26 04:58:02;;;;;;;;;;;;;;;8.02;51.55;96085.91;4966714;28;20029;-69
2023/09/26 05:00:28;;;;;;;;;;;;;;;7.97;52.11;96088.19;4955477;28;20739;-69
2023/09/26 05:02:53;;;;;;;;;;;;;;;7.90;52.27;96085.31;4951776;28;20392;-69
2023/09/26 05:05:19;;;;;;;;;;;;;;;7.87;51.06;96088.25;4965157;28;20038;-69
2023/09/26 05:07:44;;;;;;;;;;;;;;;7.78;51.77;96089.97;4955766;28;19972;-69
2023/09/26 05:10:12;;;;;;;;;;;;;;;7.72;52.26;96087.06;4952869;28;19989;-69
2023/09/26 05:12:40;;;;;;;;;;;;;;;7.67;52.56;96090.16;4956927;28;20000;-69
2023/09/26 05:15:12;;;;;;;;;;;;;;;7.63;52.74;96097.56;4956458;28;20388;-69
2023/09/26 05:17:37;;;;;;;;;;;;;;;7.60;52.43;96097.00;4957194;28;19988;-70
2023/09/26 05:20:04;;;;;;;;;;;;;;;7.57;52.34;96097.31;4967916;28;20004;-69
2023/09/26 05:22:29;;;;;;;;;;;;;;;7.54;52.75;96095.78;4953656;28;20034;-69
2023/09/26 05:24:55;;;;;;;;;;;;;;;7.49;53.16;96096.25;4970357;28;20862;-69
2023/09/26 05:27:20;;;;;;;;;;;;;;;7.45;53.01;96094.84;4966905;28;20052;-69
2023/09/26 05:29:45;;;;;;;;;;;;;;;7.45;53.05;96099.31;4971821;28;19999;-69
2023/09/26 05:32:10;;;;;;;;;;;;;;;7.46;53.25;96098.34;4966427;28;20133;-69
2023/09/26 05:34:36;;;;;;;;;;;;;;;7.47;53.25;96103.50;4957711;28;20012;-70
2023/09/26 05:37:01;;;;;;;;;;;;;;;7.48;52.92;96104.34;4960822;28;19990;-69
2023/09/26 05:39:26;;;;;;;;;;;;;;;7.51;52.76;96099.56;4969112;28;20096;-69
2023/09/26 05:41:51;;;;;;;;;;;;;;;7.52;52.54;96095.94;4960507;28;19989;-69
2023/09/26 05:44:17;;;;;;;;;;;;;;;7.56;52.82;96096.47;4955657;28;20055;-69
2023/09/26 05:46:43;;;;;;;;;;;;;;;7.60;52.80;96103.16;4957312;28;19982;-69
2023/09/26 05:49:08;;;;;;;;;;;;;;;7.65;52.79;96092.13;4957128;28;19984;-70
2023/09/26 05:51:34;;;;;;;;;;;;;;;7.72;52.82;96095.81;4957760;28;20445;-69
2023/09/26 05:53:59;;;;;;;;;;;;;;;7.81;52.05;96102.09;4956341;28;20699;-69
2023/09/26 05:56:24;;;;;;;;;;;;;;;7.91;51.85;96105.53;4957605;28;19964;-69
2023/09/26 05:58:49;;;;;;;;;;;;;;;8.00;52.14;96098.50;4956039;28;19971;-69
2023/09/26 06:01:15;;;;;;;;;;;;;;;8.09;51.83;96099.41;4956994;28;19987;-69
2023/09/26 06:03:40;;;;;;;;;;;;;;;8.23;51.31;96105.19;4963057;28;20000;-69
2023/09/26 06:06:06;;;;;;;;;;;;;;;8.33;50.74;96099.81;4961056;28;20005;-69
2023/09/26 06:08:31;;;;;;;;;;;;;;;8.44;50.51;96104.88;4961503;28;19995;-69
2023/09/26 06:10:56;;;;;;;;;;;;;;;8.49;50.63;96099.94;4960257;28;19976;-69
2023/09/26 06:13:21;;;;;;;;;;;;;;;8.59;50.80;96101.66;4965611;28;19987;-69
2023/09/26 06:15:47;;;;;;;;;;;;;;;8.67;50.18;96102.56;4961031;28;20000;-69
2023/09/26 06:18:12;;;;;;;;;;;;;;;8.79;49.96;96105.81;4970484;28;20038;-69
2023/09/26 06:20:38;;;;;;;;;;;;;;;8.89;49.56;96102.22;4969683;28;20057;-69
2023/09/26 06:23:03;;;;;;;;;;;;;;;8.98;49.60;96104.00;4974566;28;20594;-69
2023/09/26 06:25:29;;;;;;;;;;;;;;;9.11;49.28;96098.25;4972471;28;19997;-69
2023/09/26 06:27:54;;;;;;;;;;;;;;;9.27;48.98;96099.31;4968291;28;19975;-69
2023/09/26 06:30:20;;;;;;;;;;;;;;;9.39;48.67;96095.41;4961308;28;20085;-69
2023/09/26 06:32:45;;;;;;;;;;;;;;;9.58;48.50;96091.69;4964106;28;19991;-69
2023/09/26 06:35:10;;;;;;;;;;;;;;;9.78;47.98;96087.91;4958773;28;20035;-69
2023/09/26 06:37:36;;;;;;;;;;;;;;;9.97;47.48;96092.94;4960261;28;20649;-69
2023/09/26 06:40:04;;;;;;;;;;;;;;;10.19;48.19;96089.88;4968968;28;19964;-69
2023/09/26 06:42:33;;;;;;;;;;;;;;;10.41;48.25;96087.56;4959953;28;20070;-69
2023/09/26 06:44:58;;;;;;;;;;;;;;;10.60;48.17;96089.06;4961472;28;19989;-69
2023/09/26 06:47:24;;;;;;;;;;;;;;;10.83;45.87;96086.56;4956162;28;19965;-69
2023/09/26 06:49:49;;;;;;;;;;;;;;;11.03;45.89;96086.22;4960110;28;20003;-69
2023/09/26 06:52:14;;;;;;;;;;;;;;;11.24;45.12;96085.69;4967452;28;19960;-69
2023/09/26 06:54:39;;;;;;;;;;;;;;;11.44;46.13;96087.97;4957110;28;19968;-69
2023/09/26 06:57:05;;;;;;;;;;;;;;;11.69;44.13;96092.38;4951639;28;20000;-69
2023/09/26 06:59:30;;;;;;;;;;;;;;;11.89;45.56;96092.78;4962411;28;20001;-69
2023/09/26 07:01:55;;;;;;;;;;;;;;;12.09;45.20;96093.19;4959202;28;20023;-69
2023/09/26 07:04:20;;;;;;;;;;;;;;;12.24;44.24;96090.59;4971836;28;20342;-69
2023/09/26 07:06:46;;;;;;;;;;;;;;;12.57;44.46;96091.41;4959390;28;20607;-69
2023/09/26 07:09:15;;;;;;;;;;;;;;;12.75;44.62;96096.41;4961751;28;20066;-69
2023/09/26 07:11:40;;;;;;;;;;;;;;;13.02;43.90;96099.53;4966461;28;19967;-69
2023/09/26 07:14:05;;;;;;;;;;;;;;;13.15;41.59;96099.75;4967035;28;19969;-69
2023/09/26 07:16:33;;;;;;;;;;;;;;;13.34;41.98;96099.38;4952928;28;20061;-69
2023/09/26 07:18:58;;;;;;;;;;;;;;;13.66;44.18;96092.81;4963011;28;19943;-69
2023/09/26 07:21:23;;;;;;;;;;;;;;;13.76;43.35;96095.22;4969731;28;19995;-70
2023/09/26 07:23:49;;;;;;;;;;;;;;;13.99;43.55;96099.63;4964562;28;20008;-69
2023/09/26 07:26:16;;;;;;;;;;;;;;;14.19;41.65;96086.47;4962834;28;19968;-69
2023/09/26 07:28:42;;;;;;;;;;;;;;;14.45;43.19;96093.09;4954703;28;19962;-70
2023/09/26 07:31:09;;;;;;;;;;;;;;;14.53;40.61;96092.16;4957098;28;19959;-69
2023/09/26 07:33:34;;;;;;;;;;;;;;;14.67;41.27;96090.44;4958077;28;19977;-69
2023/09/26 07:36:00;;;;;;;;;;;;;;;14.89;42.50;96094.97;4973083;28;19999;-69
2023/09/26 07:38:25;;;;;;;;;;;;;;;15.07;40.05;96091.81;4959708;28;20062;-69
2023/09/26 07:40:50;;;;;;;;;;;;;;;15.31;42.10;96095.06;4970527;28;19987;-69
2023/09/26 07:43:16;;;;;;;;;;;;;;;15.41;40.66;96103.59;4969302;28;20596;-69
2023/09/26 07:45:41;;;;;;;;;;;;;;;15.56;41.37;96099.97;4969541;28;19961;-69
2023/09/26 07:48:06;;;;;;;;;;;;;;;15.64;41.34;96094.47;4968306;28;20549;-69
2023/09/26 07:50:31;;;;;;;;;;;;;;;15.63;42.00;96100.03;4958976;28;20005;-69
2023/09/26 07:52:57;;;;;;;;;;;;;;;15.79;39.93;96094.31;4969558;28;19993;-69
2023/09/26 07:55:22;;;;;;;;;;;;;;;15.82;41.21;96099.28;4956356;28;20031;-69
2023/09/26 07:57:47;;;;;;;;;;;;;;;15.87;42.00;96098.69;4951373;28;20039;-70
2023/09/26 08:00:13;;;;;;;;;;;;;;;16.31;40.81;96095.75;4950056;28;20397;-70
2023/09/26 08:02:38;;;;;;;;;;;;;;;16.50;40.68;96105.72;4946501;28;20398;-70
2023/09/26 08:05:04;;;;;;;;;;;;;;;16.29;40.86;96103.16;4949859;28;19970;-69
2023/09/26 08:07:29;;;;;;;;;;;;;;;16.30;40.88;96096.75;4950784;28;19942;-68
2023/09/26 08:10:00;;;;;;;;;;;;;;;16.49;39.20;96093.31;4949329;28;19973;-68
2023/09/26 08:12:25;;;;;;;;;;;;;;;16.72;40.13;96102.84;4948377;28;20241;-68
2023/09/26 08:14:52;;;;;;;;;;;;;;;15.55;41.84;96111.72;4950587;28;19975;-68
2023/09/26 08:17:18;;;;;;;;;;;;;;;15.92;41.21;96103.44;4951450;28;20062;-69
2023/09/26 08:19:43;;;;;;;;;;;;;;;16.16;41.08;96107.47;4954640;28;20010;-69
2023/09/26 08:22:08;;;;;;;;;;;;;;;16.56;40.04;96101.41;4962179;28;20459;-69
2023/09/26 08:24:34;;;;;;;;;;;;;;;16.97;38.95;96101.41;4947364;28;19964;-69
2023/09/26 08:26:59;;;;;;;;;;;;;;;16.45;39.47;96102.00;4950129;28;20762;-69
2023/09/26 08:29:24;;;;;;;;;;;;;;;16.38;38.94;96089.38;4949996;28;19956;-70
2023/09/26 08:31:50;;;;;;;;;;;;;;;16.43;39.38;96096.81;4947843;28;19929;-69
2023/09/26 08:34:15;;;;;;;;;;;;;;;16.24;39.43;96101.91;4956379;28;20030;-70
2023/09/26 08:36:40;;;;;;;;;;;;;;;16.84;39.30;96096.84;4951878;28;20066;-69
2023/09/26 08:39:06;;;;;;;;;;;;;;;17.12;38.68;96102.06;4948676;28;19966;-70
2023/09/26 08:41:33;;;;;;;;;;;;;;;17.18;37.20;96097.72;4958824;28;20597;-68
2023/09/26 08:43:58;;;;;;;;;;;;;;;17.09;36.64;96093.53;4949915;28;19953;-70
2023/09/26 08:46:23;;;;;;;;;;;;;;;17.31;35.15;96090.66;4950497;28;20476;-70
2023/09/26 08:48:49;;;;;;;;;;;;;;;17.40;35.70;96097.44;4948737;28;19973;-70
2023/09/26 08:51:14;;;;;;;;;;;;;;;17.43;34.59;96090.84;4949067;28;20613;-70
2023/09/26 08:53:39;;;;;;;;;;;;;;;17.56;38.70;96090.78;4945625;28;19957;-70
2023/09/26 08:56:04;;;;;;;;;;;;;;;17.78;37.79;96087.84;4949472;28;19936;-70
2023/09/26 08:58:30;;;;;;;;;;;;;;;17.66;34.46;96084.97;4945128;28;19937;-70
2023/09/26 09:00:55;;;;;;;;;;;;;;;17.47;37.15;96086.69;4945604;28;19930;-70
2023/09/26 09:03:20;;;;;;;;;;;;;;;17.45;37.80;96083.38;4951835;28;19930;-70
2023/09/26 09:05:46;;;;;;;;;;;;;;;17.50;38.13;96087.09;4950914;28;20351;-71
2023/09/26 09:08:18;;;;;;;;;;;;;;;17.70;37.54;96083.50;4964183;28;20553;-70
2023/09/26 09:10:55;;;;;;;;;;;;;;;18.12;36.18;96083.13;4953746;28;19926;-75
2023/09/26 09:13:27;;;;;;;;;;;;;;;18.20;35.67;96089.31;4960488;28;20749;-73
2023/09/26 09:16:05;;;;;;;;;;;;;;;17.89;37.24;96091.75;4964415;28;19972;-74
2023/09/26 09:18:30;;;;;;;;;;;;;;;17.72;37.73;96086.81;4964566;28;20664;-75
2023/09/26 09:20:56;;;;;;;;;;;;;;;17.99;37.65;96083.22;4966245;28;19929;-74
2023/09/26 09:23:21;;;;;;;;;;;;;;;18.38;36.71;96083.19;4974993;28;20059;-75
2023/09/26 09:25:50;;;;;;;;;;;;;;;17.62;38.31;96089.13;4962737;28;20498;-74
2023/09/26 09:28:18;;;;;;;;;;;;;;;18.26;37.41;96081.19;4957358;28;20277;-74
2023/09/26 09:30:43;;;;;;;;;;;;;;;18.31;36.83;96078.69;4945785;28;19918;-67
2023/09/26 09:33:09;;;;;;;;;;;;;;;18.23;37.41;96078.13;4947354;28;19962;-66
2023/09/26 09:35:34;;;;;;;;;;;;;;;18.63;37.28;96075.19;4947020;28;20017;-66
2023/09/26 09:38:00;;;;;;;;;;;;;;;19.26;36.20;96064.50;4948029;28;19937;-67
2023/09/26 09:40:25;;;;;;;;;;;;;;;19.50;35.82;96070.09;4949553;28;19926;-67
2023/09/26 09:42:51;;;;;;;;;;;;;;;19.58;34.62;96067.09;4950999;28;19929;-68
2023/09/26 09:45:19;;;;;;;;;;;;;;;19.44;33.64;96062.88;4952147;28;20029;-67
2023/09/26 09:47:45;;;;;;;;;;;;;;;19.65;34.15;96068.91;4954792;28;20020;-66
2023/09/26 09:50:10;;;;;;;;;;;;;;;19.74;33.97;96064.03;4956531;28;19992;-67
2023/09/26 09:52:35;;;;;;;;;;;;;;;19.56;32.56;96061.09;4952993;28;19930;-66
2023/09/26 09:55:03;;;;;;;;;;;;;;;18.59;36.13;96059.69;4953273;28;19926;-67
2023/09/26 09:57:28;;;;;;;;;;;;;;;18.08;37.05;96065.75;4951385;28;19926;-68
2023/09/26 09:59:53;;;;;;;;;;;;;;;18.66;35.37;96076.66;4951554;28;19933;-68
2023/09/26 10:02:18;;;;;;;;;;;;;;;16.82;41.34;96074.75;4949165;28;19977;-68
2023/09/26 10:04:47;;;;;;;;;;;;;;;17.71;38.59;96066.31;4951116;28;19934;-68
2023/09/26 10:07:13;;;;;;;;;;;;;;;18.85;35.05;96052.41;4952559;28;19933;-67
2023/09/26 10:09:38;;;;;;;;;;;;;;;18.97;35.41;96055.22;4956228;28;19926;-67
2023/09/26 10:12:04;;;;;;;;;;;;;;;19.11;35.41;96055.94;4968071;28;19922;-68
2023/09/26 10:14:30;;;;;;;;;;;;;;;19.23;35.52;96058.72;4966294;28;19922;-67
2023/09/26 10:16:57;;;;;;;;;;;;;;;19.47;33.17;96048.94;4965408;28;19926;-68
2023/09/26 10:19:22;;;;;;;;;;;;;;;19.37;34.67;96051.34;4960096;28;19918;-68
2023/09/26 10:21:47;;;;;;;;;;;;;;;19.61;32.55;96055.00;4952379;28;19930;-67
2023/09/26 10:24:13;;;;;;;;;;;;;;;19.24;34.38;96061.19;4958201;28;20383;-67
2023/09/26 10:26:48;;;;;;;;;;;;;;;19.51;34.66;96057.44;4956777;28;19961;-68
2023/09/26 10:29:19;;;;;;;;;;;;;;;19.43;32.80;96061.22;4951440;28;19930;-67
2023/09/26 10:31:53;;;;;;;;;;;;;;;19.79;32.61;96058.75;4950633;28;19926;-68
2023/09/26 10:34:19;;;;;;;;;;;;;;;20.25;34.33;96063.81;4953247;28;20728;-68
2023/09/26 10:36:44;;;;;;;;;;;;;;;20.59;33.95;96064.97;4936519;28;19929;-68
2023/09/26 10:39:09;;;;;;;;;;;;;;;20.56;33.19;96064.63;4956871;28;20445;-68
2023/09/26 10:41:34;;;;;;;;;;;;;;;20.64;33.37;96066.19;4951454;28;19926;-68
2023/09/26 10:44:01;;;;;;;;;;;;;;;20.54;32.93;96056.72;4950156;28;19930;-68
2023/09/26 10:46:26;;;;;;;;;;;;;;;20.66;32.71;96047.84;4951438;28;20017;-68
2023/09/26 10:48:52;;;;;;;;;;;;;;;21.12;31.29;96051.63;4972039;28;20000;-68
2023/09/26 10:51:17;;;;;;;;;;;;;;;21.36;32.47;96048.97;4950009;28;20040;-67
2023/09/26 10:53:43;;;;;;;;;;;;;;;20.94;31.59;96049.06;4952292;28;19965;-67
2023/09/26 10:56:09;;;;;;;;;;;;;;;20.49;32.76;96052.00;4950405;28;19953;-67
2023/09/26 10:58:34;;;;;;;;;;;;;;;20.87;33.02;96046.44;4950714;28;20507;-67
2023/09/26 11:00:59;;;;;;;;;;;;;;;21.00;31.53;96064.34;4953121;28;21333;-67
2023/09/26 11:03:24;;;;;;;;;;;;;;;21.28;30.42;96060.13;4951605;28;19940;-67
2023/09/26 11:05:50;;;;;;;;;;;;;;;21.42;30.75;96057.19;4953237;28;20036;-67
2023/09/26 11:08:15;;;;;;;;;;;;;;;21.71;31.44;96054.53;4950275;28;20009;-68
2023/09/26 11:10:44;;;;;;;;;;;;;;;21.89;31.17;96053.56;4952548;28;19926;-68
2023/09/26 11:13:10;;;;;;;;;;;;;;;21.89;31.08;96051.66;4958089;28;19930;-67
2023/09/26 11:15:36;;;;;;;;;;;;;;;21.26;32.00;96043.28;4953296;28;20511;-67
2023/09/26 11:18:02;;;;;;;;;;;;;;;21.76;31.26;96050.03;4949375;28;19926;-67
2023/09/26 11:20:27;;;;;;;;;;;;;;;22.00;30.97;96044.56;4955902;28;19933;-67
2023/09/26 11:22:52;;;;;;;;;;;;;;;22.03;31.52;96037.84;4949964;28;19980;-67
2023/09/26 11:25:17;;;;;;;;;;;;;;;21.69;30.76;96043.13;4957908;28;19937;-67
2023/09/26 11:27:46;;;;;;;;;;;;;;;22.07;31.33;96038.19;4956114;28;19977;-67
2023/09/26 11:30:13;;;;;;;;;;;;;;;22.08;30.42;96046.09;4954967;28;19926;-67
2023/09/26 11:32:39;;;;;;;;;;;;;;;22.11;29.86;96037.47;4949269;28;20529;-68
2023/09/26 11:35:04;;;;;;;;;;;;;;;21.98;30.83;96040.44;4948606;28;19926;-67
2023/09/26 11:37:30;;;;;;;;;;;;;;;21.93;30.59;96037.66;4949900;28;19926;-67
2023/09/26 11:39:55;;;;;;;;;;;;;;;22.27;30.27;96037.75;4951193;28;20001;-67
2023/09/26 11:42:21;;;;;;;;;;;;;;;21.23;32.00;96036.44;4951373;28;19937;-67
2023/09/26 11:44:52;;;;;;;;;;;;;;;22.03;31.46;96035.16;4949147;28;19930;-67
2023/09/26 11:47:19;;;;;;;;;;;;;;;22.08;30.57;96035.22;4951128;28;19926;-67
2023/09/26 11:49:44;;;;;;;;;;;;;;;20.97;32.80;96035.06;4950828;28;20574;-67
2023/09/26 11:52:09;;;;;;;;;;;;;;;22.02;31.56;96030.78;4950990;28;19922;-67
2023/09/26 11:54:36;;;;;;;;;;;;;;;23.02;29.95;96025.97;4951247;28;19997;-67
2023/09/26 11:57:01;;;;;;;;;;;;;;;22.40;30.49;96031.19;4951664;28;21879;-69
2023/09/26 11:59:27;;;;;;;;;;;;;;;22.87;30.13;96032.78;4949438;28;19930;-70
2023/09/26 12:01:54;;;;;;;;;;;;;;;23.08;29.71;96022.25;4950801;28;20706;-70
2023/09/26 12:04:20;;;;;;;;;;;;;;;23.04;29.02;96021.94;4949157;28;20387;-69
2023/09/26 12:06:46;;;;;;;;;;;;;;;23.08;29.13;96018.72;4949120;28;19948;-69
2023/09/26 12:09:19;;;;;;;;;;;;;;;22.45;29.62;96028.56;4949636;28;20392;-70
2023/09/26 12:11:44;;;;;;;;;;;;;;;22.64;30.01;96023.75;4948345;28;19926;-68
2023/09/26 12:14:09;;;;;;;;;;;;;;;22.30;30.43;96026.41;4948213;28;19930;-66
2023/09/26 12:16:35;;;;;;;;;;;;;;;21.47;31.49;96024.78;4953986;28;19926;-75
2023/09/26 12:19:00;;;;;;;;;;;;;;;21.83;30.97;96022.00;4964481;28;19922;-74
2023/09/26 12:21:25;;;;;;;;;;;;;;;22.74;30.08;96016.88;4962107;28;19977;-76
2023/09/26 12:23:51;;;;;;;;;;;;;;;23.29;29.63;96025.28;4953136;28;20000;-74
2023/09/26 12:26:16;;;;;;;;;;;;;;;23.11;29.13;96016.31;4945686;28;19926;-74
2023/09/26 12:28:42;;;;;;;;;;;;;;;23.57;29.46;96015.31;4971745;28;19949;-75
2023/09/26 12:31:07;;;;;;;;;;;;;;;22.72;29.69;96019.00;4967772;28;20340;-76
2023/09/26 12:33:33;;;;;;;;;;;;;;;23.14;29.04;96010.41;4940089;28;20081;-75
2023/09/26 12:35:59;;;;;;;;;;;;;;;23.47;29.02;96010.59;4956121;28;20572;-76
2023/09/26 12:38:24;;;;;;;;;;;;;;;23.63;28.59;96014.31;4958503;28;19973;-74
2023/09/26 12:40:50;;;;;;;;;;;;;;;24.32;28.14;96017.56;4956613;28;19972;-74
2023/09/26 12:43:15;;;;;;;;;;;;;;;24.58;27.35;96019.69;4955636;28;20429;-75
2023/09/26 12:45:40;;;;;;;;;;;;;;;25.32;27.21;96017.22;4945142;28;19961;-74